PWSweather.com
Personal Weather Stations
Station Observations
ISYDDANM23
Felsted, AabenraaDK 6200

FelstedAabenraaDK 6200

Lat: 54.977066, Lon: 9.507192

Elevation: 135

Station Type: Davis Vantage Pro 2 Plus 24H

http://www.valkaer.dk

High Low Average
Temperature 84.7°F29.3°C 53.1°F11.7°C 67.8°F19.9°C
Dew Point 67.3°F19.6°C 49.0°F9.4°C 57.9°F14.4°C
Winds 21.9 mph 35.2 kmh Calm Calm 8.0 mph WSW12.9 kmh WSW
Wind Gusts 28.8 mph46.3 kmh -- 11.0 mph17.7 kmh
Humidity 91% 46% 72%
Pressure 29.96 in1014.6 mb 29.73 in1006.8 mb -
Precipitation 0.00 in0.0 mm - -
Hour Temp Dew Point Humidity Winds Wind Gusts Pressure Precip Precip Rate Daily Precip Total
12:00 AM 55.4°F13.0°C 50.4°F10.2°C 83% Calm Calm 1.2 mph1.9 kmh 29.96 in1014.6 mb - 0.00 in0.0 mm 0.00 in0.0 mm
12:10 AM 55.6°F13.1°C 50.8°F10.4°C 84% Calm Calm -- 29.96 in1014.6 mb - 0.00 in0.0 mm 0.00 in0.0 mm
12:15 AM 55.4°F13.0°C 50.0°F10.0°C 82% Calm Calm -- 29.96 in1014.6 mb - 0.00 in0.0 mm 0.00 in0.0 mm
12:20 AM 54.2°F12.3°C 50.1°F10.1°C 86% Calm Calm -- 29.96 in1014.6 mb - 0.00 in0.0 mm 0.00 in0.0 mm
12:25 AM 54.2°F12.3°C 50.4°F10.2°C 87% Calm Calm -- 29.96 in1014.6 mb - 0.00 in0.0 mm 0.00 in0.0 mm
12:30 AM 54.8°F12.7°C 51.3°F10.7°C 88% Calm Calm -- 29.96 in1014.6 mb - 0.00 in0.0 mm 0.00 in0.0 mm
12:35 AM 55.1°F12.8°C 50.7°F10.4°C 85% Calm Calm -- 29.95 in1014.2 mb - 0.00 in0.0 mm 0.00 in0.0 mm
12:40 AM 54.5°F12.5°C 49.7°F9.8°C 84% Calm Calm 1.2 mph1.9 kmh 29.95 in1014.2 mb - 0.00 in0.0 mm 0.00 in0.0 mm
12:45 AM 54.3°F12.4°C 49.9°F9.9°C 85% Calm Calm -- 29.95 in1014.2 mb - 0.00 in0.0 mm 0.00 in0.0 mm
12:50 AM 54.6°F12.6°C 50.1°F10.1°C 85% Calm Calm -- 29.95 in1014.2 mb - 0.00 in0.0 mm 0.00 in0.0 mm
12:55 AM 54.8°F12.7°C 51.3°F10.7°C 88% Calm Calm -- 29.95 in1014.2 mb - 0.00 in0.0 mm 0.00 in0.0 mm
01:00 AM 54.8°F12.7°C 51.3°F10.7°C 88% Calm Calm -- 29.95 in1014.2 mb - 0.00 in0.0 mm 0.00 in0.0 mm
01:10 AM 55.1°F12.8°C 51.6°F10.9°C 88% Calm Calm 1.2 mph1.9 kmh 29.94 in1013.9 mb - 0.00 in0.0 mm 0.00 in0.0 mm
01:15 AM 54.3°F12.4°C 50.2°F10.1°C 86% Calm Calm -- 29.94 in1013.9 mb - 0.00 in0.0 mm 0.00 in0.0 mm
01:20 AM 54.1°F12.3°C 51.0°F10.6°C 89% Calm Calm -- 29.94 in1013.9 mb - 0.00 in0.0 mm 0.00 in0.0 mm
01:25 AM 54.5°F12.5°C 51.4°F10.8°C 89% Calm Calm -- 29.94 in1013.9 mb - 0.00 in0.0 mm 0.00 in0.0 mm
01:30 AM 54.9°F12.7°C 51.7°F10.9°C 89% Calm Calm -- 29.93 in1013.5 mb - 0.00 in0.0 mm 0.00 in0.0 mm
01:35 AM 55.4°F13.0°C 52.2°F11.2°C 89% Calm Calm -- 29.93 in1013.5 mb - 0.00 in0.0 mm 0.00 in0.0 mm
01:40 AM 56.0°F13.3°C 52.8°F11.6°C 89% Calm Calm -- 29.93 in1013.5 mb - 0.00 in0.0 mm 0.00 in0.0 mm
01:45 AM 54.9°F12.7°C 51.1°F10.6°C 87% Calm Calm -- 29.93 in1013.5 mb - 0.00 in0.0 mm 0.00 in0.0 mm
01:50 AM 54.5°F12.5°C 51.1°F10.6°C 88% Calm Calm -- 29.93 in1013.5 mb - 0.00 in0.0 mm 0.00 in0.0 mm
01:55 AM 54.5°F12.5°C 51.0°F10.6°C 88% Calm Calm -- 29.93 in1013.5 mb - 0.00 in0.0 mm 0.00 in0.0 mm
02:00 AM 54.9°F12.7°C 51.4°F10.8°C 88% Calm Calm -- 29.92 in1013.2 mb - 0.00 in0.0 mm 0.00 in0.0 mm
02:10 AM 54.3°F12.4°C 50.5°F10.3°C 87% Calm Calm -- 29.91 in1012.9 mb - 0.00 in0.0 mm 0.00 in0.0 mm
02:15 AM 54.4°F12.4°C 50.9°F10.5°C 88% Calm Calm -- 29.92 in1013.2 mb - 0.00 in0.0 mm 0.00 in0.0 mm
02:20 AM 54.2°F12.3°C 50.8°F10.4°C 88% Calm Calm -- 29.91 in1012.9 mb - 0.00 in0.0 mm 0.00 in0.0 mm
02:25 AM 53.8°F12.1°C 49.7°F9.8°C 86% Calm Calm -- 29.91 in1012.9 mb - 0.00 in0.0 mm 0.00 in0.0 mm
02:30 AM 53.6°F12.0°C 49.5°F9.7°C 86% Calm Calm -- 29.91 in1012.9 mb - 0.00 in0.0 mm 0.00 in0.0 mm
02:35 AM 53.7°F12.1°C 49.3°F9.6°C 85% Calm Calm -- 29.91 in1012.9 mb - 0.00 in0.0 mm 0.00 in0.0 mm
02:40 AM 53.6°F12.0°C 49.2°F9.6°C 85% Calm Calm -- 29.90 in1012.5 mb - 0.00 in0.0 mm 0.00 in0.0 mm
02:45 AM 53.4°F11.9°C 49.0°F9.4°C 85% Calm Calm -- 29.90 in1012.5 mb - 0.00 in0.0 mm 0.00 in0.0 mm
02:50 AM 53.1°F11.7°C 49.1°F9.5°C 86% Calm Calm -- 29.90 in1012.5 mb - 0.00 in0.0 mm 0.00 in0.0 mm
02:55 AM 53.2°F11.8°C 49.1°F9.5°C 86% Calm Calm -- 29.90 in1012.5 mb - 0.00 in0.0 mm 0.00 in0.0 mm
03:00 AM 54.2°F12.3°C 50.4°F10.2°C 87% Calm Calm -- 29.89 in1012.2 mb - 0.00 in0.0 mm 0.00 in0.0 mm
03:10 AM 53.8°F12.1°C 49.7°F9.8°C 86% Calm Calm -- 29.88 in1011.9 mb - 0.00 in0.0 mm 0.00 in0.0 mm
03:15 AM 53.9°F12.2°C 50.4°F10.2°C 88% Calm Calm -- 29.88 in1011.9 mb - 0.00 in0.0 mm 0.00 in0.0 mm
03:20 AM 55.5°F13.1°C 52.9°F11.6°C 91% Calm Calm -- 29.88 in1011.9 mb - 0.00 in0.0 mm 0.00 in0.0 mm
03:25 AM 57.0°F13.9°C 54.1°F12.3°C 90% Calm Calm -- 29.87 in1011.5 mb - 0.00 in0.0 mm 0.00 in0.0 mm
03:30 AM 57.9°F14.4°C 54.7°F12.6°C 89% Calm Calm -- 29.87 in1011.5 mb - 0.00 in0.0 mm 0.00 in0.0 mm
03:35 AM 58.3°F14.6°C 54.8°F12.7°C 88% Calm Calm -- 29.87 in1011.5 mb - 0.00 in0.0 mm 0.00 in0.0 mm
03:40 AM 58.7°F14.8°C 55.1°F12.8°C 88% Calm Calm -- 29.86 in1011.2 mb - 0.00 in0.0 mm 0.00 in0.0 mm
03:45 AM 59.3°F15.2°C 55.7°F13.2°C 88% Calm Calm -- 29.86 in1011.2 mb - 0.00 in0.0 mm 0.00 in0.0 mm
03:50 AM 59.8°F15.4°C 55.9°F13.3°C 87% Calm Calm -- 29.86 in1011.2 mb - 0.00 in0.0 mm 0.00 in0.0 mm
03:55 AM 60.1°F15.6°C 56.2°F13.4°C 87% Calm Calm -- 29.86 in1011.2 mb - 0.00 in0.0 mm 0.00 in0.0 mm
04:00 AM 60.3°F15.7°C 56.4°F13.6°C 87% 2.3 mph SE3.7 kmh SE 3.5 mph5.6 kmh 29.85 in1010.8 mb - 0.00 in0.0 mm 0.00 in0.0 mm
04:10 AM 60.4°F15.8°C 56.8°F13.8°C 88% 1.2 mph SE1.9 kmh SE 3.5 mph5.6 kmh 29.85 in1010.8 mb - 0.00 in0.0 mm 0.00 in0.0 mm
04:15 AM 60.6°F15.9°C 56.7°F13.7°C 87% 1.2 mph SE1.9 kmh SE 2.3 mph3.7 kmh 29.85 in1010.8 mb - 0.00 in0.0 mm 0.00 in0.0 mm
04:20 AM 60.8°F16.0°C 57.2°F14.0°C 88% 1.2 mph SE1.9 kmh SE 2.3 mph3.7 kmh 29.85 in1010.8 mb - 0.00 in0.0 mm 0.00 in0.0 mm
04:25 AM 61.0°F16.1°C 57.1°F13.9°C 87% 2.3 mph SE3.7 kmh SE 3.5 mph5.6 kmh 29.85 in1010.8 mb - 0.00 in0.0 mm 0.00 in0.0 mm
04:30 AM 61.0°F16.1°C 57.1°F13.9°C 87% 1.2 mph SE1.9 kmh SE 3.5 mph5.6 kmh 29.84 in1010.5 mb - 0.00 in0.0 mm 0.00 in0.0 mm
04:35 AM 61.1°F16.2°C 57.2°F14.0°C 87% 2.3 mph SE3.7 kmh SE 2.3 mph3.7 kmh 29.84 in1010.5 mb - 0.00 in0.0 mm 0.00 in0.0 mm
04:40 AM 61.2°F16.2°C 57.3°F14.1°C 87% 1.2 mph SE1.9 kmh SE 3.5 mph5.6 kmh 29.84 in1010.5 mb - 0.00 in0.0 mm 0.00 in0.0 mm
04:45 AM 61.2°F16.2°C 57.3°F14.1°C 87% 1.2 mph SE1.9 kmh SE 2.3 mph3.7 kmh 29.84 in1010.5 mb - 0.00 in0.0 mm 0.00 in0.0 mm
04:50 AM 61.0°F16.1°C 57.1°F13.9°C 87% Calm Calm -- 29.84 in1010.5 mb - 0.00 in0.0 mm 0.00 in0.0 mm
04:55 AM 60.6°F15.9°C 57.0°F13.9°C 88% Calm Calm 2.3 mph3.7 kmh 29.84 in1010.5 mb - 0.00 in0.0 mm 0.00 in0.0 mm
05:00 AM 60.9°F16.1°C 57.3°F14.1°C 88% Calm Calm 1.2 mph1.9 kmh 29.84 in1010.5 mb - 0.00 in0.0 mm 0.00 in0.0 mm
05:10 AM 61.5°F16.4°C 57.6°F14.2°C 87% 1.2 mph SE1.9 kmh SE 2.3 mph3.7 kmh 29.84 in1010.5 mb - 0.00 in0.0 mm 0.00 in0.0 mm
05:15 AM 61.8°F16.6°C 57.5°F14.2°C 86% 1.2 mph SE1.9 kmh SE 2.3 mph3.7 kmh 29.84 in1010.5 mb - 0.00 in0.0 mm 0.00 in0.0 mm
05:20 AM 62.1°F16.7°C 57.5°F14.2°C 85% 1.2 mph SE1.9 kmh SE 2.3 mph3.7 kmh 29.83 in1010.2 mb - 0.00 in0.0 mm 0.00 in0.0 mm
05:25 AM 62.6°F17.0°C 58.0°F14.4°C 85% 1.2 mph SE1.9 kmh SE 2.3 mph3.7 kmh 29.83 in1010.2 mb - 0.00 in0.0 mm 0.00 in0.0 mm
05:30 AM 63.0°F17.2°C 58.1°F14.5°C 84% 1.2 mph SE1.9 kmh SE 2.3 mph3.7 kmh 29.82 in1009.8 mb - 0.00 in0.0 mm 0.00 in0.0 mm
05:35 AM 63.4°F17.4°C 58.1°F14.5°C 83% 1.2 mph SE1.9 kmh SE 2.3 mph3.7 kmh 29.82 in1009.8 mb - 0.00 in0.0 mm 0.00 in0.0 mm
05:40 AM 64.0°F17.8°C 58.4°F14.7°C 82% Calm Calm 1.2 mph1.9 kmh 29.82 in1009.8 mb - 0.00 in0.0 mm 0.00 in0.0 mm
05:45 AM 64.5°F18.1°C 58.5°F14.7°C 81% 2.3 mph SE3.7 kmh SE 3.5 mph5.6 kmh 29.81 in1009.5 mb - 0.00 in0.0 mm 0.00 in0.0 mm
05:50 AM 65.0°F18.3°C 59.0°F15.0°C 81% 2.3 mph SSE3.7 kmh SSE 3.5 mph5.6 kmh 29.81 in1009.5 mb - 0.00 in0.0 mm 0.00 in0.0 mm
05:55 AM 65.5°F18.6°C 58.8°F14.9°C 79% 2.3 mph SSE3.7 kmh SSE 3.5 mph5.6 kmh 29.80 in1009.1 mb - 0.00 in0.0 mm 0.00 in0.0 mm
06:00 AM 65.9°F18.8°C 58.8°F14.9°C 78% 1.2 mph SSE1.9 kmh SSE 3.5 mph5.6 kmh 29.80 in1009.1 mb - 0.00 in0.0 mm 0.00 in0.0 mm
06:10 AM 66.8°F19.3°C 59.7°F15.4°C 78% 1.2 mph SSE1.9 kmh SSE 3.5 mph5.6 kmh 29.80 in1009.1 mb - 0.00 in0.0 mm 0.00 in0.0 mm
06:15 AM 67.3°F19.6°C 59.5°F15.3°C 76% 2.3 mph S3.7 kmh S 3.5 mph5.6 kmh 29.80 in1009.1 mb - 0.00 in0.0 mm 0.00 in0.0 mm
06:20 AM 67.8°F19.9°C 59.9°F15.5°C 76% 2.3 mph S3.7 kmh S 3.5 mph5.6 kmh 29.79 in1008.8 mb - 0.00 in0.0 mm 0.00 in0.0 mm
06:25 AM 68.1°F20.1°C 59.5°F15.3°C 74% 2.3 mph S3.7 kmh S 5.8 mph9.3 kmh 29.79 in1008.8 mb - 0.00 in0.0 mm 0.00 in0.0 mm
06:30 AM 68.4°F20.2°C 59.8°F15.4°C 74% 2.3 mph S3.7 kmh S 3.5 mph5.6 kmh 29.79 in1008.8 mb - 0.00 in0.0 mm 0.00 in0.0 mm
06:35 AM 68.8°F20.4°C 60.2°F15.7°C 74% 3.5 mph S5.6 kmh S 5.8 mph9.3 kmh 29.79 in1008.8 mb - 0.00 in0.0 mm 0.00 in0.0 mm
06:40 AM 69.1°F20.6°C 60.1°F15.6°C 73% 2.3 mph S3.7 kmh S 3.5 mph5.6 kmh 29.79 in1008.8 mb - 0.00 in0.0 mm 0.00 in0.0 mm
06:45 AM 69.5°F20.8°C 60.1°F15.6°C 72% 3.5 mph SSE5.6 kmh SSE 5.8 mph9.3 kmh 29.79 in1008.8 mb - 0.00 in0.0 mm 0.00 in0.0 mm
06:50 AM 70.0°F21.1°C 60.1°F15.6°C 71% 2.3 mph SSE3.7 kmh SSE 3.5 mph5.6 kmh 29.79 in1008.8 mb - 0.00 in0.0 mm 0.00 in0.0 mm
06:55 AM 70.4°F21.3°C 61.0°F16.1°C 72% 1.2 mph S1.9 kmh S 3.5 mph5.6 kmh 29.78 in1008.5 mb - 0.00 in0.0 mm 0.00 in0.0 mm
07:00 AM 70.9°F21.6°C 60.6°F15.9°C 70% 2.3 mph S3.7 kmh S 3.5 mph5.6 kmh 29.78 in1008.5 mb - 0.00 in0.0 mm 0.00 in0.0 mm
07:10 AM 72.0°F22.2°C 61.3°F16.3°C 69% 1.2 mph S1.9 kmh S 4.6 mph7.4 kmh 29.78 in1008.5 mb - 0.00 in0.0 mm 0.00 in0.0 mm
07:15 AM 72.7°F22.6°C 60.7°F15.9°C 66% 2.3 mph SW3.7 kmh SW 4.6 mph7.4 kmh 29.78 in1008.5 mb - 0.00 in0.0 mm 0.00 in0.0 mm
07:20 AM 72.8°F22.7°C 59.5°F15.3°C 63% 6.9 mph S11.1 kmh S 10.4 mph16.7 kmh 29.78 in1008.5 mb - 0.00 in0.0 mm 0.00 in0.0 mm
07:25 AM 73.1°F22.8°C 60.2°F15.7°C 64% 4.6 mph S7.4 kmh S 5.8 mph9.3 kmh 29.78 in1008.5 mb - 0.00 in0.0 mm 0.00 in0.0 mm
07:30 AM 73.4°F23.0°C 60.5°F15.8°C 64% 4.6 mph SSW7.4 kmh SSW 9.2 mph14.8 kmh 29.78 in1008.5 mb - 0.00 in0.0 mm 0.00 in0.0 mm
07:35 AM 73.6°F23.1°C 58.9°F14.9°C 60% 5.8 mph S9.3 kmh S 9.2 mph14.8 kmh 29.78 in1008.5 mb - 0.00 in0.0 mm 0.00 in0.0 mm
07:40 AM 73.9°F23.3°C 60.0°F15.6°C 62% 4.6 mph SSW7.4 kmh SSW 5.8 mph9.3 kmh 29.77 in1008.1 mb - 0.00 in0.0 mm 0.00 in0.0 mm
07:45 AM 74.1°F23.4°C 59.8°F15.4°C 61% 4.6 mph S7.4 kmh S 5.8 mph9.3 kmh 29.77 in1008.1 mb - 0.00 in0.0 mm 0.00 in0.0 mm
07:50 AM 74.7°F23.7°C 58.9°F14.9°C 58% 6.9 mph SSW11.1 kmh SSW 9.2 mph14.8 kmh 29.77 in1008.1 mb - 0.00 in0.0 mm 0.00 in0.0 mm
07:55 AM 75.0°F23.9°C 59.7°F15.4°C 59% 6.9 mph SSW11.1 kmh SSW 8.1 mph13.0 kmh 29.77 in1008.1 mb - 0.00 in0.0 mm 0.00 in0.0 mm
08:00 AM 75.5°F24.2°C 61.1°F16.2°C 61% 3.5 mph S5.6 kmh S 8.1 mph13.0 kmh 29.77 in1008.1 mb - 0.00 in0.0 mm 0.00 in0.0 mm
08:10 AM 76.2°F24.6°C 59.9°F15.5°C 57% 6.9 mph S11.1 kmh S 8.1 mph13.0 kmh 29.76 in1007.8 mb - 0.00 in0.0 mm 0.00 in0.0 mm
08:15 AM 76.4°F24.7°C 60.1°F15.6°C 57% 4.6 mph SSW7.4 kmh SSW 6.9 mph11.1 kmh 29.76 in1007.8 mb - 0.00 in0.0 mm 0.00 in0.0 mm
08:20 AM 76.8°F24.9°C 60.4°F15.8°C 57% 4.6 mph SSW7.4 kmh SSW 9.2 mph14.8 kmh 29.76 in1007.8 mb - 0.00 in0.0 mm 0.00 in0.0 mm
08:25 AM 77.3°F25.2°C 59.9°F15.5°C 55% 5.8 mph S9.3 kmh S 8.1 mph13.0 kmh 29.75 in1007.5 mb - 0.00 in0.0 mm 0.00 in0.0 mm
08:30 AM 77.8°F25.4°C 60.3°F15.7°C 55% 5.8 mph S9.3 kmh S 6.9 mph11.1 kmh 29.76 in1007.8 mb - 0.00 in0.0 mm 0.00 in0.0 mm
08:35 AM 78.1°F25.6°C 58.5°F14.7°C 51% 8.1 mph SSW13.0 kmh SSW 11.5 mph18.5 kmh 29.76 in1007.8 mb - 0.00 in0.0 mm 0.00 in0.0 mm
08:40 AM 78.6°F25.9°C 59.5°F15.3°C 52% 6.9 mph S11.1 kmh S 11.5 mph18.5 kmh 29.76 in1007.8 mb - 0.00 in0.0 mm 0.00 in0.0 mm
08:45 AM 78.9°F26.1°C 60.3°F15.7°C 53% 5.8 mph SSW9.3 kmh SSW 8.1 mph13.0 kmh 29.75 in1007.5 mb - 0.00 in0.0 mm 0.00 in0.0 mm
08:50 AM 79.1°F26.2°C 58.9°F14.9°C 50% 8.1 mph SW13.0 kmh SW 11.5 mph18.5 kmh 29.75 in1007.5 mb - 0.00 in0.0 mm 0.00 in0.0 mm
08:55 AM 79.3°F26.3°C 60.1°F15.6°C 52% 5.8 mph SSW9.3 kmh SSW 11.5 mph18.5 kmh 29.75 in1007.5 mb - 0.00 in0.0 mm 0.00 in0.0 mm
09:00 AM 79.6°F26.4°C 59.9°F15.5°C 51% 5.8 mph SW9.3 kmh SW 6.9 mph11.1 kmh 29.75 in1007.5 mb - 0.00 in0.0 mm 0.00 in0.0 mm
09:10 AM 79.9°F26.6°C 59.6°F15.3°C 50% 8.1 mph SSW13.0 kmh SSW 13.8 mph22.2 kmh 29.75 in1007.5 mb - 0.00 in0.0 mm 0.00 in0.0 mm
09:15 AM 80.3°F26.8°C 59.4°F15.2°C 49% 8.1 mph S13.0 kmh S 10.4 mph16.7 kmh 29.75 in1007.5 mb - 0.00 in0.0 mm 0.00 in0.0 mm
09:20 AM 80.6°F27.0°C 59.7°F15.4°C 49% 6.9 mph S11.1 kmh S 10.4 mph16.7 kmh 29.75 in1007.5 mb - 0.00 in0.0 mm 0.00 in0.0 mm
09:25 AM 80.9°F27.2°C 59.3°F15.2°C 48% 8.1 mph S13.0 kmh S 11.5 mph18.5 kmh 29.74 in1007.1 mb - 0.00 in0.0 mm 0.00 in0.0 mm
09:30 AM 81.2°F27.3°C 60.2°F15.7°C 49% 6.9 mph SW11.1 kmh SW 9.2 mph14.8 kmh 29.75 in1007.5 mb - 0.00 in0.0 mm 0.00 in0.0 mm
09:35 AM 81.8°F27.7°C 60.8°F16.0°C 49% 6.9 mph SW11.1 kmh SW 10.4 mph16.7 kmh 29.74 in1007.1 mb - 0.00 in0.0 mm 0.00 in0.0 mm
09:40 AM 82.0°F27.8°C 59.2°F15.1°C 46% 9.2 mph SSW14.8 kmh SSW 11.5 mph18.5 kmh 29.74 in1007.1 mb - 0.00 in0.0 mm 0.00 in0.0 mm
09:45 AM 82.4°F28.0°C 62.5°F16.9°C 51% 8.1 mph SW13.0 kmh SW 9.2 mph14.8 kmh 29.74 in1007.1 mb - 0.00 in0.0 mm 0.00 in0.0 mm
09:50 AM 82.5°F28.1°C 62.0°F16.7°C 50% 8.1 mph SW13.0 kmh SW 11.5 mph18.5 kmh 29.74 in1007.1 mb - 0.00 in0.0 mm 0.00 in0.0 mm
09:55 AM 82.3°F27.9°C 63.5°F17.5°C 53% 5.8 mph SSW9.3 kmh SSW 10.4 mph16.7 kmh 29.74 in1007.1 mb - 0.00 in0.0 mm 0.00 in0.0 mm
10:00 AM 82.8°F28.2°C 62.8°F17.1°C 51% 9.2 mph SSW14.8 kmh SSW 11.5 mph18.5 kmh 29.73 in1006.8 mb - 0.00 in0.0 mm 0.00 in0.0 mm
10:10 AM 83.5°F28.6°C 61.7°F16.5°C 48% 10.4 mph SSW16.7 kmh SSW 15.0 mph24.1 kmh 29.73 in1006.8 mb - 0.00 in0.0 mm 0.00 in0.0 mm
10:15 AM 83.5°F28.6°C 61.8°F16.6°C 48% 9.2 mph SW14.8 kmh SW 13.8 mph22.2 kmh 29.73 in1006.8 mb - 0.00 in0.0 mm 0.00 in0.0 mm
10:20 AM 83.9°F28.8°C 63.2°F17.3°C 50% 6.9 mph SW11.1 kmh SW 10.4 mph16.7 kmh 29.73 in1006.8 mb - 0.00 in0.0 mm 0.00 in0.0 mm
10:25 AM 84.7°F29.3°C 64.0°F17.8°C 50% 9.2 mph SW14.8 kmh SW 13.8 mph22.2 kmh 29.73 in1006.8 mb - 0.00 in0.0 mm 0.00 in0.0 mm
10:30 AM 84.7°F29.3°C 62.8°F17.1°C 48% 12.7 mph SW20.4 kmh SW 17.3 mph27.8 kmh 29.73 in1006.8 mb - 0.00 in0.0 mm 0.00 in0.0 mm
10:35 AM 84.2°F29.0°C 62.4°F16.9°C 48% 13.8 mph SW22.2 kmh SW 19.6 mph31.5 kmh 29.73 in1006.8 mb - 0.00 in0.0 mm 0.00 in0.0 mm
10:40 AM 84.3°F29.1°C 63.7°F17.6°C 50% 11.5 mph WSW18.5 kmh WSW 16.1 mph25.9 kmh 29.73 in1006.8 mb - 0.00 in0.0 mm 0.00 in0.0 mm
10:45 AM 84.3°F29.1°C 62.5°F16.9°C 48% 16.1 mph WSW25.9 kmh WSW 21.9 mph35.2 kmh 29.73 in1006.8 mb - 0.00 in0.0 mm 0.00 in0.0 mm
10:50 AM 83.9°F28.8°C 62.7°F17.1°C 49% 15.0 mph SW24.1 kmh SW 19.6 mph31.5 kmh 29.73 in1006.8 mb - 0.00 in0.0 mm 0.00 in0.0 mm
10:55 AM 84.0°F28.9°C 62.2°F16.8°C 48% 13.8 mph SW22.2 kmh SW 15.0 mph24.1 kmh 29.74 in1007.1 mb - 0.00 in0.0 mm 0.00 in0.0 mm
11:00 AM 83.9°F28.8°C 63.3°F17.4°C 50% 13.8 mph WSW22.2 kmh WSW 18.4 mph29.6 kmh 29.74 in1007.1 mb - 0.00 in0.0 mm 0.00 in0.0 mm
11:10 AM 83.6°F28.7°C 63.0°F17.2°C 50% 13.8 mph WSW22.2 kmh WSW 18.4 mph29.6 kmh 29.73 in1006.8 mb - 0.00 in0.0 mm 0.00 in0.0 mm
11:15 AM 83.2°F28.4°C 62.6°F17.0°C 50% 12.7 mph WSW20.4 kmh WSW 15.0 mph24.1 kmh 29.73 in1006.8 mb - 0.00 in0.0 mm 0.00 in0.0 mm
11:20 AM 82.6°F28.1°C 62.7°F17.1°C 51% 15.0 mph SW24.1 kmh SW 19.6 mph31.5 kmh 29.73 in1006.8 mb - 0.00 in0.0 mm 0.00 in0.0 mm
11:25 AM 82.8°F28.2°C 62.8°F17.1°C 51% 13.8 mph SW22.2 kmh SW 19.6 mph31.5 kmh 29.73 in1006.8 mb - 0.00 in0.0 mm 0.00 in0.0 mm
11:30 AM 82.9°F28.3°C 64.0°F17.8°C 53% 12.7 mph SW20.4 kmh SW 15.0 mph24.1 kmh 29.74 in1007.1 mb - 0.00 in0.0 mm 0.00 in0.0 mm
11:35 AM 82.8°F28.2°C 63.9°F17.7°C 53% 12.7 mph WSW20.4 kmh WSW 17.3 mph27.8 kmh 29.73 in1006.8 mb - 0.00 in0.0 mm 0.00 in0.0 mm
11:40 AM 82.3°F27.9°C 63.5°F17.5°C 53% 15.0 mph SW24.1 kmh SW 19.6 mph31.5 kmh 29.73 in1006.8 mb - 0.00 in0.0 mm 0.00 in0.0 mm
11:45 AM 82.4°F28.0°C 65.1°F18.4°C 56% 13.8 mph WSW22.2 kmh WSW 18.4 mph29.6 kmh 29.74 in1007.1 mb - 0.00 in0.0 mm 0.00 in0.0 mm
11:50 AM 82.1°F27.8°C 64.8°F18.2°C 56% 13.8 mph WSW22.2 kmh WSW 21.9 mph35.2 kmh 29.74 in1007.1 mb - 0.00 in0.0 mm 0.00 in0.0 mm
11:55 AM 82.1°F27.8°C 63.8°F17.7°C 54% 21.9 mph WSW35.2 kmh WSW 28.8 mph46.3 kmh 29.74 in1007.1 mb - 0.00 in0.0 mm 0.00 in0.0 mm
12:00 PM 80.9°F27.2°C 64.7°F18.2°C 58% 17.3 mph WSW27.8 kmh WSW 26.5 mph42.6 kmh 29.75 in1007.5 mb - 0.00 in0.0 mm 0.00 in0.0 mm
12:10 PM 79.9°F26.6°C 64.8°F18.2°C 60% 13.8 mph SW22.2 kmh SW 16.1 mph25.9 kmh 29.75 in1007.5 mb - 0.00 in0.0 mm 0.00 in0.0 mm
12:15 PM 80.0°F26.7°C 64.4°F18.0°C 59% 18.4 mph WSW29.6 kmh WSW 25.3 mph40.7 kmh 29.74 in1007.1 mb - 0.00 in0.0 mm 0.00 in0.0 mm
12:20 PM 80.1°F26.7°C 65.0°F18.3°C 60% 20.7 mph WSW33.3 kmh WSW 26.5 mph42.6 kmh 29.74 in1007.1 mb - 0.00 in0.0 mm 0.00 in0.0 mm
12:25 PM 79.9°F26.6°C 65.3°F18.5°C 61% 18.4 mph WSW29.6 kmh WSW 26.5 mph42.6 kmh 29.75 in1007.5 mb - 0.00 in0.0 mm 0.00 in0.0 mm
12:30 PM 79.1°F26.2°C 64.5°F18.1°C 61% 18.4 mph WSW29.6 kmh WSW 23.0 mph37.0 kmh 29.75 in1007.5 mb - 0.00 in0.0 mm 0.00 in0.0 mm
12:35 PM 79.2°F26.2°C 65.6°F18.7°C 63% 12.7 mph SW20.4 kmh SW 19.6 mph31.5 kmh 29.75 in1007.5 mb - 0.00 in0.0 mm 0.00 in0.0 mm
12:40 PM 79.2°F26.2°C 65.5°F18.6°C 63% 12.7 mph SW20.4 kmh SW 17.3 mph27.8 kmh 29.75 in1007.5 mb - 0.00 in0.0 mm 0.00 in0.0 mm
12:45 PM 79.7°F26.5°C 65.1°F18.4°C 61% 18.4 mph SW29.6 kmh SW 21.9 mph35.2 kmh 29.75 in1007.5 mb - 0.00 in0.0 mm 0.00 in0.0 mm
12:50 PM 80.4°F26.9°C 65.7°F18.7°C 61% 13.8 mph WSW22.2 kmh WSW 18.4 mph29.6 kmh 29.75 in1007.5 mb - 0.00 in0.0 mm 0.00 in0.0 mm
12:55 PM 80.4°F26.9°C 65.3°F18.5°C 60% 17.3 mph WSW27.8 kmh WSW 20.7 mph33.3 kmh 29.75 in1007.5 mb - 0.00 in0.0 mm 0.00 in0.0 mm
01:00 PM 80.3°F26.8°C 65.6°F18.7°C 61% 16.1 mph WSW25.9 kmh WSW 15.0 mph24.1 kmh 29.75 in1007.5 mb - 0.00 in0.0 mm 0.00 in0.0 mm
01:10 PM 78.9°F26.1°C 66.6°F19.2°C 66% 15.0 mph WSW24.1 kmh WSW 21.9 mph35.2 kmh 29.76 in1007.8 mb - 0.00 in0.0 mm 0.00 in0.0 mm
01:15 PM 79.2°F26.2°C 67.3°F19.6°C 67% 15.0 mph WSW24.1 kmh WSW 24.2 mph38.9 kmh 29.76 in1007.8 mb - 0.00 in0.0 mm 0.00 in0.0 mm
01:20 PM 78.2°F25.7°C 66.0°F18.9°C 66% 17.3 mph W27.8 kmh W 25.3 mph40.7 kmh 29.76 in1007.8 mb - 0.00 in0.0 mm 0.00 in0.0 mm
01:25 PM 77.6°F25.3°C 65.7°F18.7°C 67% 17.3 mph WSW27.8 kmh WSW 24.2 mph38.9 kmh 29.77 in1008.1 mb - 0.00 in0.0 mm 0.00 in0.0 mm
01:30 PM 76.8°F24.9°C 65.8°F18.8°C 69% 17.3 mph W27.8 kmh W 24.2 mph38.9 kmh 29.77 in1008.1 mb - 0.00 in0.0 mm 0.00 in0.0 mm
01:35 PM 75.9°F24.4°C 65.0°F18.3°C 69% 18.4 mph W29.6 kmh W 20.7 mph33.3 kmh 29.77 in1008.1 mb - 0.00 in0.0 mm 0.00 in0.0 mm
01:40 PM 76.0°F24.4°C 65.5°F18.6°C 70% 16.1 mph WSW25.9 kmh WSW 21.9 mph35.2 kmh 29.78 in1008.5 mb - 0.00 in0.0 mm 0.00 in0.0 mm
01:45 PM 75.9°F24.4°C 65.0°F18.3°C 69% 16.1 mph WSW25.9 kmh WSW 18.4 mph29.6 kmh 29.78 in1008.5 mb - 0.00 in0.0 mm 0.00 in0.0 mm
01:50 PM 76.1°F24.5°C 66.0°F18.9°C 71% 13.8 mph W22.2 kmh W 24.2 mph38.9 kmh 29.79 in1008.8 mb - 0.00 in0.0 mm 0.00 in0.0 mm
01:55 PM 75.5°F24.2°C 65.1°F18.4°C 70% 19.6 mph W31.5 kmh W 27.6 mph44.4 kmh 29.79 in1008.8 mb - 0.00 in0.0 mm 0.00 in0.0 mm
02:00 PM 75.6°F24.2°C 64.8°F18.2°C 69% 17.3 mph WNW27.8 kmh WNW 23.0 mph37.0 kmh 29.79 in1008.8 mb - 0.00 in0.0 mm 0.00 in0.0 mm
02:10 PM 75.1°F23.9°C 63.8°F17.7°C 68% 18.4 mph W29.6 kmh W 25.3 mph40.7 kmh 29.80 in1009.1 mb - 0.00 in0.0 mm 0.00 in0.0 mm
02:15 PM 75.2°F24.0°C 63.9°F17.7°C 68% 16.1 mph W25.9 kmh W 25.3 mph40.7 kmh 29.80 in1009.1 mb - 0.00 in0.0 mm 0.00 in0.0 mm
02:20 PM 75.0°F23.9°C 63.7°F17.6°C 68% 18.4 mph W29.6 kmh W 26.5 mph42.6 kmh 29.80 in1009.1 mb - 0.00 in0.0 mm 0.00 in0.0 mm
02:25 PM 75.0°F23.9°C 63.3°F17.4°C 67% 17.3 mph W27.8 kmh W 20.7 mph33.3 kmh 29.81 in1009.5 mb - 0.00 in0.0 mm 0.00 in0.0 mm
02:30 PM 74.2°F23.4°C 63.4°F17.4°C 69% 17.3 mph WNW27.8 kmh WNW 23.0 mph37.0 kmh 29.81 in1009.5 mb - 0.00 in0.0 mm 0.00 in0.0 mm
02:35 PM 74.3°F23.5°C 63.0°F17.2°C 68% 18.4 mph WNW29.6 kmh WNW 25.3 mph40.7 kmh 29.81 in1009.5 mb - 0.00 in0.0 mm 0.00 in0.0 mm
02:40 PM 74.5°F23.6°C 62.8°F17.1°C 67% 17.3 mph WNW27.8 kmh WNW 24.2 mph38.9 kmh 29.80 in1009.1 mb - 0.00 in0.0 mm 0.00 in0.0 mm
02:45 PM 74.2°F23.4°C 63.0°F17.2°C 68% 16.1 mph W25.9 kmh W 21.9 mph35.2 kmh 29.81 in1009.5 mb - 0.00 in0.0 mm 0.00 in0.0 mm
02:50 PM 74.0°F23.3°C 61.9°F16.6°C 66% 17.3 mph W27.8 kmh W 23.0 mph37.0 kmh 29.81 in1009.5 mb - 0.00 in0.0 mm 0.00 in0.0 mm
02:55 PM 73.8°F23.2°C 62.6°F17.0°C 68% 15.0 mph W24.1 kmh W 18.4 mph29.6 kmh 29.81 in1009.5 mb - 0.00 in0.0 mm 0.00 in0.0 mm
03:00 PM 73.3°F22.9°C 61.7°F16.5°C 67% 16.1 mph W25.9 kmh W 23.0 mph37.0 kmh 29.82 in1009.8 mb - 0.00 in0.0 mm 0.00 in0.0 mm
03:10 PM 73.5°F23.1°C 62.3°F16.8°C 68% 15.0 mph W24.1 kmh W 23.0 mph37.0 kmh 29.82 in1009.8 mb - 0.00 in0.0 mm 0.00 in0.0 mm
03:15 PM 73.1°F22.8°C 61.1°F16.2°C 66% 16.1 mph W25.9 kmh W 25.3 mph40.7 kmh 29.82 in1009.8 mb - 0.00 in0.0 mm 0.00 in0.0 mm
03:20 PM 72.6°F22.6°C 61.0°F16.1°C 67% 12.7 mph W20.4 kmh W 26.5 mph42.6 kmh 29.82 in1009.8 mb - 0.00 in0.0 mm 0.00 in0.0 mm
03:25 PM 72.5°F22.5°C 60.5°F15.8°C 66% 15.0 mph WSW24.1 kmh WSW 19.6 mph31.5 kmh 29.82 in1009.8 mb - 0.00 in0.0 mm 0.00 in0.0 mm
03:30 PM 72.8°F22.7°C 59.9°F15.5°C 64% 19.6 mph W31.5 kmh W 21.9 mph35.2 kmh 29.82 in1009.8 mb - 0.00 in0.0 mm 0.00 in0.0 mm
03:35 PM 72.5°F22.5°C 58.7°F14.8°C 62% 18.4 mph W29.6 kmh W 23.0 mph37.0 kmh 29.83 in1010.2 mb - 0.00 in0.0 mm 0.00 in0.0 mm
03:40 PM 72.3°F22.4°C 59.0°F15.0°C 63% 15.0 mph W24.1 kmh W 20.7 mph33.3 kmh 29.83 in1010.2 mb - 0.00 in0.0 mm 0.00 in0.0 mm
03:45 PM 72.3°F22.4°C 59.0°F15.0°C 63% 16.1 mph W25.9 kmh W 25.3 mph40.7 kmh 29.84 in1010.5 mb - 0.00 in0.0 mm 0.00 in0.0 mm
03:50 PM 72.1°F22.3°C 58.8°F14.9°C 63% 15.0 mph W24.1 kmh W 20.7 mph33.3 kmh 29.84 in1010.5 mb - 0.00 in0.0 mm 0.00 in0.0 mm
03:55 PM 72.2°F22.3°C 58.9°F14.9°C 63% 15.0 mph W24.1 kmh W 17.3 mph27.8 kmh 29.84 in1010.5 mb - 0.00 in0.0 mm 0.00 in0.0 mm
04:00 PM 72.7°F22.6°C 60.7°F15.9°C 66% 10.4 mph W16.7 kmh W 11.5 mph18.5 kmh 29.84 in1010.5 mb - 0.00 in0.0 mm 0.00 in0.0 mm
04:10 PM 72.6°F22.6°C 59.7°F15.4°C 64% 13.8 mph WNW22.2 kmh WNW 15.0 mph24.1 kmh 29.85 in1010.8 mb - 0.00 in0.0 mm 0.00 in0.0 mm
04:15 PM 72.3°F22.4°C 59.9°F15.5°C 65% 15.0 mph W24.1 kmh W 16.1 mph25.9 kmh 29.84 in1010.5 mb - 0.00 in0.0 mm 0.00 in0.0 mm
04:20 PM 71.7°F22.1°C 59.3°F15.2°C 65% 15.0 mph WSW24.1 kmh WSW 17.3 mph27.8 kmh 29.84 in1010.5 mb - 0.00 in0.0 mm 0.00 in0.0 mm
04:25 PM 72.0°F22.2°C 59.6°F15.3°C 65% 12.7 mph WNW20.4 kmh WNW 12.7 mph20.4 kmh 29.85 in1010.8 mb - 0.00 in0.0 mm 0.00 in0.0 mm
04:30 PM 72.2°F22.3°C 59.7°F15.4°C 65% 13.8 mph W22.2 kmh W 18.4 mph29.6 kmh 29.85 in1010.8 mb - 0.00 in0.0 mm 0.00 in0.0 mm
04:35 PM 72.3°F22.4°C 60.7°F15.9°C 67% 10.4 mph W16.7 kmh W 18.4 mph29.6 kmh 29.85 in1010.8 mb - 0.00 in0.0 mm 0.00 in0.0 mm
04:40 PM 71.6°F22.0°C 59.2°F15.1°C 65% 15.0 mph WSW24.1 kmh WSW 18.4 mph29.6 kmh 29.85 in1010.8 mb - 0.00 in0.0 mm 0.00 in0.0 mm
04:45 PM 70.7°F21.5°C 58.7°F14.8°C 66% 16.1 mph W25.9 kmh W 18.4 mph29.6 kmh 29.85 in1010.8 mb - 0.00 in0.0 mm 0.00 in0.0 mm
04:50 PM 70.8°F21.6°C 59.7°F15.4°C 68% 11.5 mph W18.5 kmh W 15.0 mph24.1 kmh 29.85 in1010.8 mb - 0.00 in0.0 mm 0.00 in0.0 mm
04:55 PM 71.3°F21.8°C 59.8°F15.4°C 67% 15.0 mph W24.1 kmh W 18.4 mph29.6 kmh 29.86 in1011.2 mb - 0.00 in0.0 mm 0.00 in0.0 mm
05:00 PM 71.0°F21.7°C 59.5°F15.3°C 67% 12.7 mph W20.4 kmh W 17.3 mph27.8 kmh 29.85 in1010.8 mb - 0.00 in0.0 mm 0.00 in0.0 mm
05:10 PM 69.5°F20.8°C 58.1°F14.5°C 67% 16.1 mph WSW25.9 kmh WSW 18.4 mph29.6 kmh 29.85 in1010.8 mb - 0.00 in0.0 mm 0.00 in0.0 mm
05:15 PM 68.6°F20.3°C 58.0°F14.4°C 69% 12.7 mph W20.4 kmh W 18.4 mph29.6 kmh 29.85 in1010.8 mb - 0.00 in0.0 mm 0.00 in0.0 mm
05:20 PM 68.0°F20.0°C 57.5°F14.2°C 69% 13.8 mph WSW22.2 kmh WSW 17.3 mph27.8 kmh 29.86 in1011.2 mb - 0.00 in0.0 mm 0.00 in0.0 mm
05:25 PM 67.8°F19.9°C 57.3°F14.1°C 69% 13.8 mph W22.2 kmh W 15.0 mph24.1 kmh 29.86 in1011.2 mb - 0.00 in0.0 mm 0.00 in0.0 mm
05:30 PM 68.2°F20.1°C 57.3°F14.1°C 68% 15.0 mph W24.1 kmh W 18.4 mph29.6 kmh 29.86 in1011.2 mb - 0.00 in0.0 mm 0.00 in0.0 mm
05:35 PM 67.5°F19.7°C 57.0°F13.9°C 69% 12.7 mph W20.4 kmh W 15.0 mph24.1 kmh 29.86 in1011.2 mb - 0.00 in0.0 mm 0.00 in0.0 mm
05:40 PM 67.0°F19.4°C 56.9°F13.8°C 70% 12.7 mph W20.4 kmh W 17.3 mph27.8 kmh 29.86 in1011.2 mb - 0.00 in0.0 mm 0.00 in0.0 mm
05:45 PM 66.6°F19.2°C 56.9°F13.8°C 71% 11.5 mph W18.5 kmh W 15.0 mph24.1 kmh 29.86 in1011.2 mb - 0.00 in0.0 mm 0.00 in0.0 mm
05:50 PM 66.5°F19.2°C 56.8°F13.8°C 71% 12.7 mph W20.4 kmh W 16.1 mph25.9 kmh 29.86 in1011.2 mb - 0.00 in0.0 mm 0.00 in0.0 mm
05:55 PM 66.5°F19.2°C 56.8°F13.8°C 71% 12.7 mph W20.4 kmh W 16.1 mph25.9 kmh 29.85 in1010.8 mb - 0.00 in0.0 mm 0.00 in0.0 mm
06:00 PM 66.4°F19.1°C 56.3°F13.5°C 70% 13.8 mph W22.2 kmh W 19.6 mph31.5 kmh 29.86 in1011.2 mb - 0.00 in0.0 mm 0.00 in0.0 mm
06:10 PM 65.8°F18.8°C 56.5°F13.6°C 72% 9.2 mph W14.8 kmh W 11.5 mph18.5 kmh 29.83 in1010.2 mb - 0.00 in0.0 mm 0.00 in0.0 mm
06:15 PM 66.2°F19.0°C 57.3°F14.1°C 73% 13.8 mph W22.2 kmh W 16.1 mph25.9 kmh 29.86 in1011.2 mb - 0.00 in0.0 mm 0.00 in0.0 mm
06:20 PM 66.6°F19.2°C 57.3°F14.1°C 72% 13.8 mph W22.2 kmh W 17.3 mph27.8 kmh 29.86 in1011.2 mb - 0.00 in0.0 mm 0.00 in0.0 mm
06:25 PM 66.9°F19.4°C 57.2°F14.0°C 71% 12.7 mph W20.4 kmh W 13.8 mph22.2 kmh 29.87 in1011.5 mb - 0.00 in0.0 mm 0.00 in0.0 mm
06:30 PM 66.4°F19.1°C 56.7°F13.7°C 71% 13.8 mph W22.2 kmh W 17.3 mph27.8 kmh 29.87 in1011.5 mb - 0.00 in0.0 mm 0.00 in0.0 mm
06:35 PM 65.6°F18.7°C 56.3°F13.5°C 72% 11.5 mph W18.5 kmh W 16.1 mph25.9 kmh 29.88 in1011.9 mb - 0.00 in0.0 mm 0.00 in0.0 mm
06:40 PM 64.8°F18.2°C 56.0°F13.3°C 73% 13.8 mph W22.2 kmh W 17.3 mph27.8 kmh 29.86 in1011.2 mb - 0.00 in0.0 mm 0.00 in0.0 mm
06:45 PM 65.3°F18.5°C 56.5°F13.6°C 73% 10.4 mph W16.7 kmh W 12.7 mph20.4 kmh 29.88 in1011.9 mb - 0.00 in0.0 mm 0.00 in0.0 mm
06:50 PM 65.7°F18.7°C 56.4°F13.6°C 72% 13.8 mph W22.2 kmh W 13.8 mph22.2 kmh 29.88 in1011.9 mb - 0.00 in0.0 mm 0.00 in0.0 mm
06:55 PM 65.8°F18.8°C 56.6°F13.7°C 72% 12.7 mph WSW20.4 kmh WSW 13.8 mph22.2 kmh 29.88 in1011.9 mb - 0.00 in0.0 mm 0.00 in0.0 mm
07:00 PM 65.7°F18.7°C 56.0°F13.3°C 71% 16.1 mph WSW25.9 kmh WSW 20.7 mph33.3 kmh 29.88 in1011.9 mb - 0.00 in0.0 mm 0.00 in0.0 mm
07:10 PM 65.1°F18.4°C 55.8°F13.2°C 72% 11.5 mph WSW18.5 kmh WSW 13.8 mph22.2 kmh 29.88 in1011.9 mb - 0.00 in0.0 mm 0.00 in0.0 mm
07:15 PM 64.9°F18.3°C 55.7°F13.2°C 72% 16.1 mph WSW25.9 kmh WSW 19.6 mph31.5 kmh 29.89 in1012.2 mb - 0.00 in0.0 mm 0.00 in0.0 mm
07:20 PM 64.8°F18.2°C 55.2°F12.9°C 71% 13.8 mph W22.2 kmh W 16.1 mph25.9 kmh 29.89 in1012.2 mb - 0.00 in0.0 mm 0.00 in0.0 mm
07:25 PM 64.7°F18.2°C 55.1°F12.8°C 71% 12.7 mph W20.4 kmh W 17.3 mph27.8 kmh 29.89 in1012.2 mb - 0.00 in0.0 mm 0.00 in0.0 mm
07:30 PM 64.6°F18.1°C 55.0°F12.8°C 71% 15.0 mph W24.1 kmh W 19.6 mph31.5 kmh 29.89 in1012.2 mb - 0.00 in0.0 mm 0.00 in0.0 mm
07:35 PM 64.4°F18.0°C 55.2°F12.9°C 72% 12.7 mph W20.4 kmh W 16.1 mph25.9 kmh 29.89 in1012.2 mb - 0.00 in0.0 mm 0.00 in0.0 mm
07:40 PM 64.3°F17.9°C 55.1°F12.8°C 72% 11.5 mph WSW18.5 kmh WSW 13.8 mph22.2 kmh 29.89 in1012.2 mb - 0.00 in0.0 mm 0.00 in0.0 mm
07:45 PM 64.1°F17.8°C 55.3°F12.9°C 73% 10.4 mph WSW16.7 kmh WSW 15.0 mph24.1 kmh 29.89 in1012.2 mb - 0.00 in0.0 mm 0.00 in0.0 mm
07:50 PM 63.9°F17.7°C 54.6°F12.6°C 72% 15.0 mph W24.1 kmh W 19.6 mph31.5 kmh 29.89 in1012.2 mb - 0.00 in0.0 mm 0.00 in0.0 mm
07:55 PM 63.6°F17.6°C 54.8°F12.7°C 73% 11.5 mph WSW18.5 kmh WSW 13.8 mph22.2 kmh 29.89 in1012.2 mb - 0.00 in0.0 mm 0.00 in0.0 mm
08:00 PM 63.4°F17.4°C 55.0°F12.8°C 74% 10.4 mph W16.7 kmh W 15.0 mph24.1 kmh 29.89 in1012.2 mb - 0.00 in0.0 mm 0.00 in0.0 mm
08:10 PM 63.1°F17.3°C 54.6°F12.6°C 74% 8.1 mph W13.0 kmh W 10.4 mph16.7 kmh 29.88 in1011.9 mb - 0.00 in0.0 mm 0.00 in0.0 mm
08:15 PM 62.8°F17.1°C 54.8°F12.7°C 75% 8.1 mph WSW13.0 kmh WSW 12.7 mph20.4 kmh 29.88 in1011.9 mb - 0.00 in0.0 mm 0.00 in0.0 mm
08:20 PM 62.7°F17.1°C 54.7°F12.6°C 75% 8.1 mph WSW13.0 kmh WSW 11.5 mph18.5 kmh 29.88 in1011.9 mb - 0.00 in0.0 mm 0.00 in0.0 mm
08:25 PM 62.5°F16.9°C 54.9°F12.7°C 76% 9.2 mph W14.8 kmh W 12.7 mph20.4 kmh 29.88 in1011.9 mb - 0.00 in0.0 mm 0.00 in0.0 mm
08:30 PM 62.5°F16.9°C 54.8°F12.7°C 76% 10.4 mph W16.7 kmh W 13.8 mph22.2 kmh 29.88 in1011.9 mb - 0.00 in0.0 mm 0.00 in0.0 mm
08:35 PM 62.2°F16.8°C 54.9°F12.7°C 77% 6.9 mph WSW11.1 kmh WSW 8.1 mph13.0 kmh 29.88 in1011.9 mb - 0.00 in0.0 mm 0.00 in0.0 mm
08:40 PM 62.0°F16.7°C 54.7°F12.6°C 77% 9.2 mph WSW14.8 kmh WSW 11.5 mph18.5 kmh 29.88 in1011.9 mb - 0.00 in0.0 mm 0.00 in0.0 mm
08:45 PM 61.8°F16.6°C 54.9°F12.7°C 78% 6.9 mph WSW11.1 kmh WSW 10.4 mph16.7 kmh 29.88 in1011.9 mb - 0.00 in0.0 mm 0.00 in0.0 mm
08:50 PM 61.5°F16.4°C 54.9°F12.7°C 79% 9.2 mph W14.8 kmh W 11.5 mph18.5 kmh 29.88 in1011.9 mb - 0.00 in0.0 mm 0.00 in0.0 mm
08:55 PM 61.4°F16.3°C 54.8°F12.7°C 79% 8.1 mph WSW13.0 kmh WSW 11.5 mph18.5 kmh 29.88 in1011.9 mb - 0.00 in0.0 mm 0.00 in0.0 mm
09:00 PM 61.3°F16.3°C 55.0°F12.8°C 80% 6.9 mph WSW11.1 kmh WSW 9.2 mph14.8 kmh 29.88 in1011.9 mb - 0.00 in0.0 mm 0.00 in0.0 mm
09:10 PM 60.9°F16.1°C 55.0°F12.8°C 81% 6.9 mph WSW11.1 kmh WSW 10.4 mph16.7 kmh 29.89 in1012.2 mb - 0.00 in0.0 mm 0.00 in0.0 mm
09:15 PM 60.6°F15.9°C 54.7°F12.6°C 81% 6.9 mph WSW11.1 kmh WSW 9.2 mph14.8 kmh 29.89 in1012.2 mb - 0.00 in0.0 mm 0.00 in0.0 mm
09:20 PM 60.3°F15.7°C 55.2°F12.9°C 83% 4.6 mph WSW7.4 kmh WSW 6.9 mph11.1 kmh 29.89 in1012.2 mb - 0.00 in0.0 mm 0.00 in0.0 mm
09:25 PM 60.2°F15.7°C 55.0°F12.8°C 83% 5.8 mph WSW9.3 kmh WSW 8.1 mph13.0 kmh 29.89 in1012.2 mb - 0.00 in0.0 mm 0.00 in0.0 mm
09:30 PM 60.1°F15.6°C 55.6°F13.1°C 85% 6.9 mph WSW11.1 kmh WSW 8.1 mph13.0 kmh 29.89 in1012.2 mb - 0.00 in0.0 mm 0.00 in0.0 mm
09:35 PM 60.2°F15.7°C 56.0°F13.3°C 86% 8.1 mph WSW13.0 kmh WSW 11.5 mph18.5 kmh 29.89 in1012.2 mb - 0.00 in0.0 mm 0.00 in0.0 mm
09:40 PM 60.5°F15.8°C 56.3°F13.5°C 86% 5.8 mph WSW9.3 kmh WSW 10.4 mph16.7 kmh 29.89 in1012.2 mb - 0.00 in0.0 mm 0.00 in0.0 mm
09:45 PM 60.5°F15.8°C 56.0°F13.3°C 85% 6.9 mph WSW11.1 kmh WSW 11.5 mph18.5 kmh 29.90 in1012.5 mb - 0.00 in0.0 mm 0.00 in0.0 mm
09:50 PM 60.5°F15.8°C 56.0°F13.3°C 85% 8.1 mph WSW13.0 kmh WSW 10.4 mph16.7 kmh 29.90 in1012.5 mb - 0.00 in0.0 mm 0.00 in0.0 mm
09:55 PM 60.4°F15.8°C 55.9°F13.3°C 85% 8.1 mph WSW13.0 kmh WSW 12.7 mph20.4 kmh 29.90 in1012.5 mb - 0.00 in0.0 mm 0.00 in0.0 mm
10:00 PM 60.2°F15.7°C 55.7°F13.2°C 85% 8.1 mph WSW13.0 kmh WSW 11.5 mph18.5 kmh 29.90 in1012.5 mb - 0.00 in0.0 mm 0.00 in0.0 mm
10:10 PM 59.7°F15.4°C 55.2°F12.9°C 85% 6.9 mph WSW11.1 kmh WSW 10.4 mph16.7 kmh 29.89 in1012.2 mb - 0.00 in0.0 mm 0.00 in0.0 mm
10:15 PM 59.6°F15.3°C 55.1°F12.8°C 85% 6.9 mph WSW11.1 kmh WSW 11.5 mph18.5 kmh 29.90 in1012.5 mb - 0.00 in0.0 mm 0.00 in0.0 mm
10:20 PM 59.5°F15.3°C 55.0°F12.8°C 85% 5.8 mph WSW9.3 kmh WSW 9.2 mph14.8 kmh 29.90 in1012.5 mb - 0.00 in0.0 mm 0.00 in0.0 mm
10:25 PM 59.3°F15.2°C 54.8°F12.7°C 85% 4.6 mph WSW7.4 kmh WSW 6.9 mph11.1 kmh 29.90 in1012.5 mb - 0.00 in0.0 mm 0.00 in0.0 mm
10:30 PM 59.0°F15.0°C 54.8°F12.7°C 86% 4.6 mph WSW7.4 kmh WSW 10.4 mph16.7 kmh 29.90 in1012.5 mb - 0.00 in0.0 mm 0.00 in0.0 mm
10:35 PM 59.0°F15.0°C 54.8°F12.7°C 86% 6.9 mph WSW11.1 kmh WSW 9.2 mph14.8 kmh 29.90 in1012.5 mb - 0.00 in0.0 mm 0.00 in0.0 mm
10:40 PM 58.9°F14.9°C 54.7°F12.6°C 86% 4.6 mph SW7.4 kmh SW 8.1 mph13.0 kmh 29.89 in1012.2 mb - 0.00 in0.0 mm 0.00 in0.0 mm
10:45 PM 58.7°F14.8°C 54.5°F12.5°C 86% 4.6 mph SW7.4 kmh SW 4.6 mph7.4 kmh 29.90 in1012.5 mb - 0.00 in0.0 mm 0.00 in0.0 mm
10:50 PM 58.6°F14.8°C 54.4°F12.4°C 86% 4.6 mph WSW7.4 kmh WSW 8.1 mph13.0 kmh 29.90 in1012.5 mb - 0.00 in0.0 mm 0.00 in0.0 mm
10:55 PM 58.5°F14.7°C 54.3°F12.4°C 86% 3.5 mph WSW5.6 kmh WSW 4.6 mph7.4 kmh 29.90 in1012.5 mb - 0.00 in0.0 mm 0.00 in0.0 mm
11:00 PM 58.2°F14.6°C 54.3°F12.4°C 87% 4.6 mph SW7.4 kmh SW 6.9 mph11.1 kmh 29.90 in1012.5 mb - 0.00 in0.0 mm 0.00 in0.0 mm
11:10 PM 58.4°F14.7°C 54.5°F12.5°C 87% 4.6 mph SW7.4 kmh SW 5.8 mph9.3 kmh 29.90 in1012.5 mb - 0.00 in0.0 mm 0.00 in0.0 mm
11:15 PM 58.4°F14.7°C 54.5°F12.5°C 87% 4.6 mph SW7.4 kmh SW 5.8 mph9.3 kmh 29.89 in1012.2 mb - 0.00 in0.0 mm 0.00 in0.0 mm
11:20 PM 58.1°F14.5°C 54.2°F12.3°C 87% 2.3 mph SW3.7 kmh SW 3.5 mph5.6 kmh 29.89 in1012.2 mb - 0.00 in0.0 mm 0.00 in0.0 mm
11:25 PM 57.9°F14.4°C 54.4°F12.4°C 88% 5.8 mph SW9.3 kmh SW 5.8 mph9.3 kmh 29.89 in1012.2 mb - 0.00 in0.0 mm 0.00 in0.0 mm
11:30 PM 57.9°F14.4°C 54.4°F12.4°C 88% 4.6 mph SW7.4 kmh SW 5.8 mph9.3 kmh 29.89 in1012.2 mb - 0.00 in0.0 mm 0.00 in0.0 mm
11:35 PM 57.9°F14.4°C 54.4°F12.4°C 88% 5.8 mph SW9.3 kmh SW 8.1 mph13.0 kmh 29.89 in1012.2 mb - 0.00 in0.0 mm 0.00 in0.0 mm
11:40 PM 57.9°F14.4°C 54.4°F12.4°C 88% 3.5 mph SW5.6 kmh SW 4.6 mph7.4 kmh 29.89 in1012.2 mb - 0.00 in0.0 mm 0.00 in0.0 mm
11:45 PM 57.8°F14.3°C 54.6°F12.6°C 89% 4.6 mph SW7.4 kmh SW 4.6 mph7.4 kmh 29.89 in1012.2 mb - 0.00 in0.0 mm 0.00 in0.0 mm
11:50 PM 57.9°F14.4°C 54.7°F12.6°C 89% 4.6 mph SW7.4 kmh SW 5.8 mph9.3 kmh 29.89 in1012.2 mb - 0.00 in0.0 mm 0.00 in0.0 mm
11:55 PM 57.9°F14.4°C 54.7°F12.6°C 89% 4.6 mph WSW7.4 kmh WSW 6.9 mph11.1 kmh 29.89 in1012.2 mb - 0.00 in0.0 mm 0.00 in0.0 mm